createdAt,value
2018-09-23T00:00:37.263Z,0
2018-09-23T00:01:45.311Z,0
2018-09-23T00:02:53.364Z,0
2018-09-23T00:04:01.445Z,0
2018-09-23T00:05:09.512Z,0
2018-09-23T00:06:17.574Z,0
2018-09-23T00:07:25.655Z,0
2018-09-23T00:08:33.693Z,0
2018-09-23T00:09:41.761Z,0
2018-09-23T00:10:49.851Z,0
2018-09-23T00:11:57.867Z,0
2018-09-23T00:13:05.938Z,0
2018-09-23T00:14:14.026Z,0
2018-09-23T00:15:22.068Z,0
2018-09-23T00:16:30.123Z,0
2018-09-23T00:17:38.194Z,0
2018-09-23T00:18:46.259Z,0
2018-09-23T00:19:54.321Z,0
2018-09-23T00:21:02.369Z,0
2018-09-23T00:22:10.482Z,0
2018-09-23T00:23:18.522Z,0
2018-09-23T00:24:26.563Z,0
2018-09-23T00:25:34.631Z,0
2018-09-23T00:26:42.664Z,0
2018-09-23T00:27:50.772Z,0
2018-09-23T00:28:58.826Z,0
2018-09-23T00:30:06.880Z,0
2018-09-23T00:31:14.941Z,0
2018-09-23T00:32:22.984Z,0
2018-09-23T00:33:31.108Z,0
2018-09-23T00:34:39.135Z,0
2018-09-23T00:35:47.192Z,0
2018-09-23T00:36:55.277Z,0
2018-09-23T00:38:03.297Z,0
2018-09-23T00:39:11.399Z,0
2018-09-23T00:40:19.453Z,0
2018-09-23T00:41:27.516Z,0
2018-09-23T00:42:35.577Z,0
2018-09-23T00:43:43.654Z,0
2018-09-23T00:44:51.710Z,0
2018-09-23T00:45:59.778Z,0
2018-09-23T00:47:07.826Z,0
2018-09-23T00:48:15.888Z,0
2018-09-23T00:49:23.957Z,0
2018-09-23T00:50:32.014Z,0
2018-09-23T00:51:40.073Z,0
2018-09-23T00:52:48.142Z,0
2018-09-23T00:53:56.201Z,0
2018-09-23T00:55:04.275Z,0
2018-09-23T00:56:12.329Z,0
2018-09-23T00:57:20.397Z,0
2018-09-23T00:58:28.473Z,0
2018-09-23T00:59:36.527Z,0
2018-09-23T01:00:44.572Z,0
2018-09-23T01:01:52.626Z,0
2018-09-23T01:03:00.705Z,0
2018-09-23T01:04:08.780Z,0
2018-09-23T01:05:16.823Z,0
2018-09-23T01:06:24.885Z,0
2018-09-23T01:07:32.933Z,0
2018-09-23T01:08:41.027Z,0
2018-09-23T01:09:49.076Z,0
2018-09-23T01:10:57.147Z,0
2018-09-23T01:12:05.218Z,0
2018-09-23T01:13:13.264Z,0
2018-09-23T01:14:21.351Z,0
2018-09-23T01:15:29.406Z,0
2018-09-23T01:16:37.462Z,0
2018-09-23T01:17:45.526Z,0
2018-09-23T01:18:53.590Z,0
2018-09-23T01:20:01.645Z,0
2018-09-23T01:21:09.721Z,0
2018-09-23T01:22:17.783Z,0
2018-09-23T01:23:25.879Z,0
2018-09-23T01:24:33.922Z,0
2018-09-23T01:25:41.965Z,0
2018-09-23T01:26:50.054Z,0
2018-09-23T01:27:58.104Z,0
2018-09-23T01:29:06.156Z,0
2018-09-23T01:30:14.233Z,0
2018-09-23T01:31:22.294Z,0
2018-09-23T01:32:30.353Z,0
2018-09-23T01:33:38.405Z,0
2018-09-23T01:34:46.463Z,0
2018-09-23T01:35:54.511Z,0
2018-09-23T01:37:02.569Z,0
2018-09-23T01:38:10.660Z,0
2018-09-23T01:39:18.715Z,0
2018-09-23T01:40:26.771Z,0
2018-09-23T01:41:34.834Z,0
2018-09-23T01:42:42.876Z,0
2018-09-23T01:43:50.970Z,0
2018-09-23T01:44:59.033Z,0
2018-09-23T01:46:07.108Z,0
2018-09-23T01:47:15.170Z,0
2018-09-23T01:48:23.195Z,0
2018-09-23T01:49:31.286Z,0
2018-09-23T01:50:39.352Z,0
2018-09-23T01:51:47.410Z,0
2018-09-23T01:52:55.463Z,0
2018-09-23T01:54:03.521Z,0
2018-09-23T01:55:11.603Z,0
2018-09-23T01:56:19.663Z,0
2018-09-23T01:57:27.723Z,0
2018-09-23T01:58:35.811Z,0
2018-09-23T01:59:43.856Z,0
2018-09-23T02:00:51.908Z,0
2018-09-23T02:01:59.986Z,0
2018-09-23T02:03:08.052Z,0
2018-09-23T02:04:16.102Z,0
2018-09-23T02:05:24.173Z,0
2018-09-23T02:06:32.240Z,0
2018-09-23T02:07:40.301Z,0
2018-09-23T02:08:48.361Z,0
2018-09-23T02:09:56.424Z,0
2018-09-23T02:11:04.475Z,0
2018-09-23T02:12:12.550Z,0
2018-09-23T02:13:20.598Z,0
2018-09-23T02:14:28.681Z,0
2018-09-23T02:15:36.740Z,0
2018-09-23T02:16:44.805Z,0
2018-09-23T02:17:52.826Z,0
2018-09-23T02:19:00.923Z,0
2018-09-23T02:20:08.974Z,0
2018-09-23T02:21:17.082Z,0
2018-09-23T02:22:25.120Z,0
2018-09-23T02:23:33.134Z,0
2018-09-23T02:24:41.238Z,0
2018-09-23T02:25:49.302Z,0
2018-09-23T02:26:57.369Z,0
2018-09-23T02:28:05.429Z,0
2018-09-23T02:29:13.457Z,0
2018-09-23T02:30:21.562Z,0
2018-09-23T02:31:29.619Z,0
2018-09-23T02:32:37.671Z,0
2018-09-23T02:33:45.734Z,0
2018-09-23T02:34:53.815Z,0
2018-09-23T02:36:01.870Z,0
2018-09-23T02:37:09.923Z,0
2018-09-23T02:38:17.992Z,0
2018-09-23T02:39:26.081Z,0
2018-09-23T02:40:34.319Z,0
2018-09-23T02:41:42.366Z,0
2018-09-23T02:42:50.451Z,0
2018-09-23T02:43:58.513Z,0
2018-09-23T02:45:06.573Z,0
2018-09-23T02:46:14.625Z,0
2018-09-23T02:47:22.666Z,0
2018-09-23T02:48:30.767Z,0
2018-09-23T02:49:38.938Z,0
2018-09-23T02:50:46.866Z,0
2018-09-23T02:51:54.940Z,0
2018-09-23T02:53:03.002Z,0
2018-09-23T02:54:11.073Z,0
2018-09-23T02:55:19.162Z,0
2018-09-23T02:56:27.196Z,0
2018-09-23T02:57:35.308Z,0
2018-09-23T02:58:43.309Z,0
2018-09-23T02:59:51.390Z,0
2018-09-23T03:00:59.447Z,0
2018-09-23T03:02:07.516Z,0
2018-09-23T03:03:15.558Z,0
2018-09-23T03:04:23.630Z,0
2018-09-23T03:05:31.696Z,0
2018-09-23T03:06:39.767Z,0
2018-09-23T03:07:47.813Z,0
2018-09-23T03:08:55.890Z,0
2018-09-23T03:10:03.945Z,0
2018-09-23T03:11:12.028Z,0
2018-09-23T03:12:20.074Z,0
2018-09-23T03:13:28.139Z,0
2018-09-23T03:14:36.215Z,0
2018-09-23T03:15:44.274Z,0
2018-09-23T03:16:52.314Z,0
2018-09-23T03:18:00.396Z,0
2018-09-23T03:19:08.505Z,0
2018-09-23T03:20:16.550Z,0
2018-09-23T03:21:25.413Z,0
2018-09-23T03:22:32.632Z,0
2018-09-23T03:23:40.712Z,0
2018-09-23T03:24:48.792Z,0
2018-09-23T03:25:56.846Z,0
2018-09-23T03:27:04.897Z,0
2018-09-23T03:28:12.939Z,0
2018-09-23T03:29:21.031Z,0
2018-09-23T03:30:29.095Z,0
2018-09-23T03:31:37.159Z,0
2018-09-23T03:32:45.213Z,0
2018-09-23T03:33:53.252Z,0
2018-09-23T03:35:01.356Z,0
2018-09-23T03:36:09.407Z,0
2018-09-23T03:37:17.469Z,0
2018-09-23T03:38:25.531Z,0
2018-09-23T03:39:33.591Z,0
2018-09-23T03:40:41.658Z,0
2018-09-23T03:41:49.736Z,0
2018-09-23T03:42:57.820Z,0
2018-09-23T03:44:05.841Z,0
2018-09-23T03:45:13.920Z,0
2018-09-23T03:46:21.979Z,0
2018-09-23T03:47:30.155Z,0
2018-09-23T03:48:38.101Z,0
2018-09-23T03:49:46.192Z,0
2018-09-23T03:50:54.224Z,0
2018-09-23T03:52:02.293Z,0
2018-09-23T03:53:10.356Z,0
2018-09-23T03:54:18.415Z,0
2018-09-23T03:55:26.489Z,0
2018-09-23T03:56:34.542Z,0
2018-09-23T03:57:42.597Z,0
2018-09-23T03:58:50.684Z,0
2018-09-23T03:59:58.735Z,0
2018-09-23T04:01:06.804Z,0
2018-09-23T04:02:14.855Z,0
2018-09-23T04:03:22.895Z,0
2018-09-23T04:04:30.997Z,0
2018-09-23T04:05:39.067Z,0
2018-09-23T04:06:47.120Z,0
2018-09-23T04:07:55.177Z,0
2018-09-23T04:09:03.215Z,0
2018-09-23T04:10:11.303Z,0
2018-09-23T04:11:19.370Z,0
2018-09-23T04:12:27.432Z,0
2018-09-23T04:13:35.503Z,0
2018-09-23T04:14:43.573Z,0
2018-09-23T04:15:51.715Z,0
2018-09-23T04:16:59.680Z,0
2018-09-23T04:18:07.761Z,0
2018-09-23T04:19:15.836Z,0
2018-09-23T04:20:23.865Z,0
2018-09-23T04:21:31.943Z,0
2018-09-23T04:22:40.000Z,0
2018-09-23T04:23:48.076Z,0
2018-09-23T04:24:56.133Z,0
2018-09-23T04:26:04.182Z,0
2018-09-23T04:27:12.273Z,0
2018-09-23T04:28:20.320Z,0
2018-09-23T04:29:28.369Z,0
2018-09-23T04:30:36.448Z,0
2018-09-23T04:31:44.517Z,0
2018-09-23T04:32:52.576Z,0
2018-09-23T04:34:00.671Z,0
2018-09-23T04:35:08.704Z,0
2018-09-23T04:36:16.752Z,0
2018-09-23T04:37:24.826Z,0
2018-09-23T04:38:32.881Z,0
2018-09-23T04:39:40.934Z,0
2018-09-23T04:40:49.052Z,0
2018-09-23T04:41:57.082Z,0
2018-09-23T04:43:05.137Z,0
2018-09-23T04:44:13.174Z,0
2018-09-23T04:45:21.276Z,0
2018-09-23T04:46:29.347Z,0
2018-09-23T04:47:37.396Z,0
2018-09-23T04:48:45.449Z,0
2018-09-23T04:49:53.504Z,0
2018-09-23T04:51:01.601Z,0
2018-09-23T04:52:09.650Z,0
2018-09-23T04:53:17.716Z,0
2018-09-23T04:54:25.791Z,0
2018-09-23T04:55:33.845Z,0
2018-09-23T04:56:41.899Z,0
2018-09-23T04:57:49.976Z,0
2018-09-23T04:58:58.036Z,0
2018-09-23T05:00:06.117Z,0
2018-09-23T05:01:14.164Z,0
2018-09-23T05:02:22.228Z,0
2018-09-23T05:03:30.298Z,0
2018-09-23T05:04:38.389Z,0
2018-09-23T05:05:46.416Z,0
2018-09-23T05:06:54.514Z,0
2018-09-23T05:08:02.527Z,0
2018-09-23T05:09:10.622Z,0
2018-09-23T05:10:18.677Z,0
2018-09-23T05:11:26.736Z,0
2018-09-23T05:12:34.821Z,0
2018-09-23T05:13:42.849Z,0
2018-09-23T05:14:50.928Z,5
2018-09-23T05:15:58.997Z,5
2018-09-23T05:17:07.062Z,5
2018-09-23T05:18:15.145Z,5
2018-09-23T05:19:23.162Z,5
2018-09-23T05:20:31.259Z,5
2018-09-23T05:21:39.313Z,5
2018-09-23T05:22:47.390Z,5
2018-09-23T05:23:55.448Z,5
2018-09-23T05:25:03.489Z,5
2018-09-23T05:26:11.579Z,5
2018-09-23T05:27:19.649Z,5
2018-09-23T05:28:27.705Z,5
2018-09-23T05:29:35.763Z,5
2018-09-23T05:30:43.832Z,5
2018-09-23T05:31:51.906Z,5
2018-09-23T05:32:59.966Z,5
2018-09-23T05:34:08.011Z,5
2018-09-23T05:35:16.095Z,5
2018-09-23T05:36:24.160Z,5
2018-09-23T05:37:32.220Z,5
2018-09-23T05:38:40.288Z,5
2018-09-23T05:39:48.353Z,5
2018-09-23T05:40:56.428Z,5
2018-09-23T05:42:04.468Z,10
2018-09-23T05:43:12.526Z,10
2018-09-23T05:44:20.606Z,10
2018-09-23T05:45:28.670Z,10
2018-09-23T05:46:36.722Z,10
2018-09-23T05:47:44.799Z,10
2018-09-23T05:48:52.834Z,10
2018-09-23T05:50:00.938Z,10
2018-09-23T05:51:08.992Z,10
2018-09-23T05:52:17.048Z,10
2018-09-23T05:53:25.113Z,10
2018-09-23T05:54:33.159Z,10
2018-09-23T05:55:41.255Z,15
2018-09-23T05:56:49.319Z,15
2018-09-23T05:57:57.370Z,10
2018-09-23T05:59:05.448Z,15
2018-09-23T06:00:13.481Z,15
2018-09-23T06:01:21.560Z,25
2018-09-23T06:02:29.622Z,30
2018-09-23T06:03:37.697Z,30
2018-09-23T06:04:45.756Z,25
2018-09-23T06:05:53.812Z,20
2018-09-23T06:07:01.890Z,20
2018-09-23T06:08:09.965Z,20
2018-09-23T06:09:18.011Z,20
2018-09-23T06:10:26.077Z,20
2018-09-23T06:11:34.150Z,15
2018-09-23T06:12:42.215Z,15
2018-09-23T06:13:50.295Z,15
2018-09-23T06:14:58.365Z,20
2018-09-23T06:16:06.410Z,15
2018-09-23T06:17:14.480Z,20
2018-09-23T06:18:22.568Z,20
2018-09-23T06:19:30.591Z,20
2018-09-23T06:20:38.670Z,25
2018-09-23T06:21:46.740Z,25
2018-09-23T06:22:54.837Z,25
2018-09-23T06:24:02.827Z,30
2018-09-23T06:25:10.957Z,30
2018-09-23T06:26:18.988Z,30
2018-09-23T06:27:27.045Z,30
2018-09-23T06:28:35.117Z,30
2018-09-23T06:29:43.145Z,30
2018-09-23T06:30:51.232Z,30
2018-09-23T06:31:59.306Z,25
2018-09-23T06:33:07.382Z,25
2018-09-23T06:34:15.430Z,25
2018-09-23T06:35:23.815Z,25
2018-09-23T06:36:31.555Z,30
2018-09-23T06:37:39.616Z,25
2018-09-23T06:38:47.690Z,35
2018-09-23T06:39:55.929Z,45
2018-09-23T06:41:03.816Z,50
2018-09-23T06:42:11.941Z,65
2018-09-23T06:43:21.957Z,60
2018-09-23T06:44:30.023Z,55
2018-09-23T06:45:38.124Z,35
2018-09-23T06:46:46.149Z,25
2018-09-23T06:47:54.480Z,30
2018-09-23T06:49:02.308Z,35
2018-09-23T06:50:10.354Z,35
2018-09-23T06:51:18.413Z,40
2018-09-23T06:52:26.487Z,50
2018-09-23T06:53:34.547Z,45
2018-09-23T06:54:42.603Z,50
2018-09-23T06:55:50.671Z,50
2018-09-23T06:56:58.761Z,50
2018-09-23T06:58:06.812Z,45
2018-09-23T06:59:14.890Z,50
2018-09-23T07:00:22.907Z,55
2018-09-23T07:01:30.997Z,60
2018-09-23T07:02:39.065Z,55
2018-09-23T07:03:47.136Z,70
2018-09-23T07:04:56.657Z,85
2018-09-23T07:06:06.486Z,80
2018-09-23T07:07:11.523Z,85
2018-09-23T07:08:22.605Z,95
2018-09-23T07:09:27.659Z,90
2018-09-23T07:10:35.726Z,70
2018-09-23T07:11:43.778Z,65
2018-09-23T07:12:52.532Z,65
2018-09-23T07:13:59.906Z,60
2018-09-23T07:15:07.977Z,75
2018-09-23T07:16:16.045Z,75
2018-09-23T07:17:24.097Z,70
2018-09-23T07:18:32.166Z,60
2018-09-23T07:19:40.244Z,55
2018-09-23T07:20:51.122Z,55
2018-09-23T07:21:58.987Z,60
2018-09-23T07:23:07.053Z,65
2018-09-23T07:24:15.323Z,65
2018-09-23T07:25:23.143Z,65
2018-09-23T07:26:31.253Z,65
2018-09-23T07:27:39.291Z,75
2018-09-23T07:28:49.508Z,90
2018-09-23T07:29:55.484Z,90
2018-09-23T07:31:03.522Z,80
2018-09-23T07:32:11.567Z,65
2018-09-23T07:33:19.633Z,65
2018-09-23T07:34:27.709Z,95
2018-09-23T07:35:35.800Z,95
2018-09-23T07:36:44.037Z,80
2018-09-23T07:37:51.902Z,80
2018-09-23T07:38:59.951Z,95
2018-09-23T07:40:08.042Z,120
2018-09-23T07:41:16.096Z,95
2018-09-23T07:42:24.162Z,100
2018-09-23T07:43:32.451Z,90
2018-09-23T07:44:40.346Z,75
2018-09-23T07:45:48.347Z,90
2018-09-23T07:46:56.422Z,115
2018-09-23T07:48:04.560Z,130
2018-09-23T07:49:12.554Z,190
2018-09-23T07:50:20.978Z,290
2018-09-23T07:51:28.685Z,300
2018-09-23T07:52:37.404Z,210
2018-09-23T07:53:44.935Z,375
2018-09-23T07:56:17.732Z,445
2018-09-23T07:57:19.515Z,425
2018-09-23T07:58:35.460Z,210
2018-09-23T07:59:43.514Z,225
2018-09-23T08:00:51.581Z,270
2018-09-23T08:01:59.645Z,330
2018-09-23T08:03:07.713Z,275
2018-09-23T08:04:15.764Z,330
2018-09-23T08:05:23.850Z,370
2018-09-23T08:06:31.931Z,395
2018-09-23T08:07:39.955Z,280
2018-09-23T08:08:48.032Z,235
2018-09-23T08:09:56.117Z,250
2018-09-23T08:11:04.161Z,195
2018-09-23T08:12:12.237Z,285
2018-09-23T08:13:20.382Z,290
2018-09-23T08:14:28.537Z,295
2018-09-23T08:15:36.439Z,285
2018-09-23T08:16:44.523Z,250
2018-09-23T08:17:52.559Z,220
2018-09-23T08:19:00.643Z,300
2018-09-23T08:20:08.920Z,235
2018-09-23T08:21:16.898Z,265
2018-09-23T08:22:24.848Z,350
2018-09-23T08:23:32.894Z,440
2018-09-23T08:24:40.979Z,380
2018-09-23T08:25:49.074Z,400
2018-09-23T08:26:57.120Z,340
2018-09-23T08:28:05.192Z,460
2018-09-23T08:29:13.218Z,450
2018-09-23T08:30:21.324Z,395
2018-09-23T08:31:29.399Z,405
2018-09-23T08:32:37.455Z,520
2018-09-23T08:33:45.522Z,495
2018-09-23T08:34:53.586Z,425
2018-09-23T08:36:01.662Z,400
2018-09-23T08:37:09.733Z,440
2018-09-23T08:38:17.790Z,375
2018-09-23T08:39:25.868Z,410
2018-09-23T08:40:33.929Z,345
2018-09-23T08:41:42.004Z,400
2018-09-23T08:42:50.135Z,410
2018-09-23T08:43:58.135Z,325
2018-09-23T08:45:06.206Z,405
2018-09-23T08:46:14.277Z,445
2018-09-23T08:47:22.334Z,380
2018-09-23T08:48:30.421Z,250
2018-09-23T08:49:38.492Z,220
2018-09-23T08:50:46.594Z,160
2018-09-23T08:51:54.698Z,165
2018-09-23T08:53:02.675Z,135
2018-09-23T08:54:10.744Z,150
2018-09-23T08:55:18.823Z,215
2018-09-23T08:56:26.890Z,170
2018-09-23T08:57:34.965Z,180
2018-09-23T08:58:42.996Z,200
2018-09-23T08:59:51.094Z,275
2018-09-23T09:00:59.160Z,285
2018-09-23T09:02:07.242Z,255
2018-09-23T09:03:15.289Z,275
2018-09-23T09:04:23.347Z,290
2018-09-23T09:05:31.472Z,240
2018-09-23T09:06:39.508Z,250
2018-09-23T09:07:47.579Z,245
2018-09-23T09:08:55.652Z,235
2018-09-23T09:10:03.712Z,370
2018-09-23T09:11:11.778Z,300
2018-09-23T09:12:19.843Z,260
2018-09-23T09:13:27.916Z,270
2018-09-23T09:14:35.982Z,335
2018-09-23T09:15:44.045Z,315
2018-09-23T09:16:52.109Z,420
2018-09-23T09:18:00.261Z,430
2018-09-23T09:19:08.246Z,345
2018-09-23T09:20:16.314Z,225
2018-09-23T09:21:24.393Z,265
2018-09-23T09:22:32.460Z,325
2018-09-23T09:23:40.532Z,350
2018-09-23T09:24:48.597Z,270
2018-09-23T09:25:56.653Z,225
2018-09-23T09:27:04.827Z,305
2018-09-23T09:28:12.764Z,290
2018-09-23T09:29:20.865Z,335
2018-09-23T09:30:28.939Z,405
2018-09-23T09:31:37.015Z,390
2018-09-23T09:32:45.077Z,330
2018-09-23T09:33:53.108Z,330
2018-09-23T09:35:01.215Z,380
2018-09-23T09:36:09.292Z,480
2018-09-23T09:37:17.348Z,440
2018-09-23T09:38:25.464Z,350
2018-09-23T09:39:33.462Z,285
2018-09-23T09:40:41.555Z,315
2018-09-23T09:41:49.631Z,320
2018-09-23T09:42:57.700Z,445
2018-09-23T09:44:05.866Z,525
2018-09-23T09:45:14.021Z,550
2018-09-23T09:46:21.893Z,475
2018-09-23T09:47:29.959Z,460
2018-09-23T09:48:38.037Z,485
2018-09-23T09:49:46.110Z,455
2018-09-23T09:50:54.178Z,395
2018-09-23T09:52:02.248Z,375
2018-09-23T09:53:10.318Z,330
2018-09-23T09:54:18.381Z,340
2018-09-23T09:55:26.544Z,320
2018-09-23T09:56:34.510Z,335
2018-09-23T09:57:42.575Z,335
2018-09-23T09:58:50.669Z,345
2018-09-23T09:59:58.722Z,340
2018-09-23T10:01:06.793Z,270
2018-09-23T10:02:14.855Z,295
2018-09-23T10:03:22.910Z,265
2018-09-23T10:04:30.998Z,290
2018-09-23T10:05:39.079Z,265
2018-09-23T10:06:47.136Z,315
2018-09-23T10:07:55.219Z,215
2018-09-23T10:09:03.257Z,325
2018-09-23T10:10:11.338Z,240
2018-09-23T10:11:19.438Z,280
2018-09-23T10:12:27.501Z,390
2018-09-23T10:13:35.554Z,400
2018-09-23T10:14:43.620Z,430
2018-09-23T10:15:51.689Z,440
2018-09-23T10:16:59.797Z,480
2018-09-23T10:18:07.826Z,440
2018-09-23T10:19:15.892Z,335
2018-09-23T10:20:23.949Z,380
2018-09-23T10:21:32.034Z,505
2018-09-23T10:22:40.233Z,610
2018-09-23T10:23:48.246Z,480
2018-09-23T10:24:56.236Z,450
2018-09-23T10:26:04.324Z,430
2018-09-23T10:27:12.392Z,405
2018-09-23T10:28:20.447Z,585
2018-09-23T10:29:28.524Z,585
2018-09-23T10:30:36.584Z,620
2018-09-23T10:31:44.716Z,470
2018-09-23T10:32:52.701Z,405
2018-09-23T10:34:00.796Z,350
2018-09-23T10:35:08.865Z,335
2018-09-23T10:36:17.142Z,220
2018-09-23T10:37:25.001Z,325
2018-09-23T10:38:33.050Z,245
2018-09-23T10:39:41.138Z,190
2018-09-23T10:40:49.224Z,210
2018-09-23T10:41:57.273Z,210
2018-09-23T10:43:05.354Z,165
2018-09-23T10:44:13.408Z,275
2018-09-23T10:45:21.484Z,210
2018-09-23T10:46:29.556Z,280
2018-09-23T10:47:37.655Z,250
2018-09-23T10:48:45.706Z,190
2018-09-23T10:49:53.758Z,235
2018-09-23T10:51:01.836Z,315
2018-09-23T10:52:09.896Z,355
2018-09-23T10:53:17.969Z,235
2018-09-23T10:54:26.034Z,350
2018-09-23T10:55:34.172Z,385
2018-09-23T10:56:42.181Z,440
2018-09-23T10:57:50.257Z,540
2018-09-23T10:58:58.330Z,405
2018-09-23T11:00:06.405Z,345
2018-09-23T11:01:14.466Z,350
2018-09-23T11:02:22.531Z,540
2018-09-23T11:03:30.616Z,505
2018-09-23T11:04:38.670Z,425
2018-09-23T11:05:46.751Z,600
2018-09-23T11:06:54.828Z,420
2018-09-23T11:08:02.866Z,400
2018-09-23T11:09:10.952Z,445
2018-09-23T11:10:19.023Z,530
2018-09-23T11:11:27.091Z,505
2018-09-23T11:12:35.156Z,425
2018-09-23T11:13:43.208Z,495
2018-09-23T11:14:51.305Z,470
2018-09-23T11:15:59.373Z,465
2018-09-23T11:17:07.481Z,495
2018-09-23T11:18:15.517Z,530
2018-09-23T11:19:23.584Z,415
2018-09-23T11:20:31.675Z,305
2018-09-23T11:21:39.761Z,385
2018-09-23T11:22:47.798Z,490
2018-09-23T11:23:55.862Z,430
2018-09-23T11:25:03.945Z,455
2018-09-23T11:26:11.995Z,540
2018-09-23T11:27:20.096Z,375
2018-09-23T11:28:28.368Z,365
2018-09-23T11:29:36.215Z,485
2018-09-23T11:30:44.957Z,400
2018-09-23T11:31:52.354Z,310
2018-09-23T11:33:00.406Z,410
2018-09-23T11:34:08.511Z,360
2018-09-23T11:35:16.576Z,340
2018-09-23T11:36:24.644Z,265
2018-09-23T11:37:32.701Z,300
2018-09-23T11:38:40.795Z,260
2018-09-23T11:39:48.939Z,315
2018-09-23T11:40:56.922Z,275
2018-09-23T11:42:04.993Z,305
2018-09-23T11:43:13.050Z,310
2018-09-23T11:44:21.133Z,435
2018-09-23T11:45:29.204Z,435
2018-09-23T11:46:37.274Z,395
2018-09-23T11:47:45.360Z,350
2018-09-23T11:48:53.389Z,525
2018-09-23T11:50:01.499Z,560
2018-09-23T11:51:09.584Z,540
2018-09-23T11:52:17.631Z,570
2018-09-23T11:53:25.697Z,600
2018-09-23T11:54:33.763Z,540
2018-09-23T11:55:41.845Z,695
2018-09-23T11:56:49.951Z,650
2018-09-23T11:57:57.976Z,555
2018-09-23T11:59:06.171Z,580
2018-09-23T12:00:14.128Z,570
2018-09-23T12:01:22.207Z,470
2018-09-23T12:02:32.860Z,445
2018-09-23T12:03:40.953Z,555
2018-09-23T12:04:49.019Z,510
2018-09-23T12:06:10.817Z,455
2018-09-23T12:07:18.903Z,495
2018-09-23T12:08:27.184Z,440
2018-09-23T12:09:35.434Z,440
2018-09-23T12:10:43.564Z,405
2018-09-23T12:11:51.608Z,585
2018-09-23T12:12:59.659Z,475
2018-09-23T12:14:07.750Z,390
2018-09-23T12:15:15.814Z,385
2018-09-23T12:16:23.869Z,340
2018-09-23T12:17:31.949Z,415
2018-09-23T12:18:40.017Z,355
2018-09-23T12:19:48.085Z,355
2018-09-23T12:20:56.163Z,420
2018-09-23T12:22:04.227Z,440
2018-09-23T12:23:12.303Z,395
2018-09-23T12:24:20.373Z,330
2018-09-23T12:25:28.530Z,325
2018-09-23T12:26:36.522Z,380
2018-09-23T12:27:44.567Z,305
2018-09-23T12:28:52.634Z,205
2018-09-23T12:30:00.755Z,225
2018-09-23T12:31:08.808Z,365
2018-09-23T12:32:16.879Z,410
2018-09-23T12:33:24.980Z,340
2018-09-23T12:34:33.007Z,350
2018-09-23T12:35:41.077Z,425
2018-09-23T12:36:49.171Z,385
2018-09-23T12:37:57.227Z,315
2018-09-23T12:39:05.321Z,400
2018-09-23T12:40:13.343Z,335
2018-09-23T12:41:21.444Z,295
2018-09-23T12:42:29.517Z,255
2018-09-23T12:43:37.789Z,205
2018-09-23T12:44:45.857Z,230
2018-09-23T12:45:53.925Z,215
2018-09-23T12:47:01.990Z,240
2018-09-23T12:48:10.067Z,215
2018-09-23T12:49:18.145Z,230
2018-09-23T12:50:26.217Z,240
2018-09-23T12:51:34.279Z,335
2018-09-23T12:52:42.351Z,255
2018-09-23T12:53:50.419Z,250
2018-09-23T12:54:58.495Z,225
2018-09-23T12:56:06.559Z,230
2018-09-23T12:57:14.630Z,235
2018-09-23T12:58:22.697Z,250
2018-09-23T12:59:30.768Z,240
2018-09-23T13:00:38.848Z,290
2018-09-23T13:01:47.077Z,275
2018-09-23T13:02:54.991Z,250
2018-09-23T13:04:03.025Z,275
2018-09-23T13:05:11.144Z,305
2018-09-23T13:06:19.207Z,290
2018-09-23T13:07:27.365Z,305
2018-09-23T13:08:35.336Z,300
2018-09-23T13:09:43.380Z,305
2018-09-23T13:10:51.468Z,280
2018-09-23T13:11:59.549Z,300
2018-09-23T13:13:07.611Z,330
2018-09-23T13:14:15.696Z,350
2018-09-23T13:15:23.761Z,355
2018-09-23T13:16:31.815Z,340
2018-09-23T13:17:39.883Z,355
2018-09-23T13:18:48.055Z,350
2018-09-23T13:19:56.031Z,350
2018-09-23T13:21:04.106Z,360
2018-09-23T13:22:12.176Z,360
2018-09-23T13:23:20.276Z,415
2018-09-23T13:24:28.637Z,425
2018-09-23T13:25:36.404Z,370
2018-09-23T13:26:44.465Z,350
2018-09-23T13:27:52.523Z,325
2018-09-23T13:29:00.626Z,310
2018-09-23T13:30:08.678Z,395
2018-09-23T13:31:16.746Z,390
2018-09-23T13:32:24.816Z,385
2018-09-23T13:33:32.889Z,335
2018-09-23T13:34:41.663Z,325
2018-09-23T13:35:49.029Z,305
2018-09-23T13:36:57.101Z,330
2018-09-23T13:38:05.174Z,340
2018-09-23T13:39:13.207Z,310
2018-09-23T13:40:21.336Z,300
2018-09-23T13:41:29.360Z,270
2018-09-23T13:42:37.466Z,385
2018-09-23T13:43:45.503Z,315
2018-09-23T13:44:53.589Z,360
2018-09-23T13:46:01.656Z,345
2018-09-23T13:47:09.735Z,355
2018-09-23T13:48:17.802Z,360
2018-09-23T13:49:25.866Z,330
2018-09-23T13:50:33.966Z,310
2018-09-23T13:51:42.016Z,250
2018-09-23T13:52:50.084Z,300
2018-09-23T13:53:58.159Z,310
2018-09-23T13:55:06.219Z,315
2018-09-23T13:56:14.313Z,300
2018-09-23T13:57:22.364Z,265
2018-09-23T13:58:30.432Z,200
2018-09-23T13:59:38.511Z,240
2018-09-23T14:00:46.574Z,265
2018-09-23T14:01:54.648Z,235
2018-09-23T14:03:02.698Z,190
2018-09-23T14:04:10.778Z,190
2018-09-23T14:05:18.856Z,225
2018-09-23T14:06:26.933Z,210
2018-09-23T14:07:34.998Z,190
2018-09-23T14:08:43.236Z,135
2018-09-23T14:09:51.351Z,135
2018-09-23T14:10:59.399Z,145
2018-09-23T14:12:07.488Z,115
2018-09-23T14:13:15.556Z,125
2018-09-23T14:14:23.657Z,110
2018-09-23T14:15:31.697Z,100
2018-09-23T14:16:39.770Z,100
2018-09-23T14:17:47.824Z,100
2018-09-23T14:18:55.908Z,130
2018-09-23T14:20:03.964Z,125
2018-09-23T14:21:12.040Z,100
2018-09-23T14:22:20.093Z,105
2018-09-23T14:23:28.177Z,100
2018-09-23T14:24:36.250Z,160
2018-09-23T14:25:44.322Z,280
2018-09-23T14:26:52.383Z,275
2018-09-23T14:28:00.491Z,245
2018-09-23T14:29:08.539Z,310
2018-09-23T14:30:16.889Z,260
2018-09-23T14:31:24.653Z,290
2018-09-23T14:32:32.717Z,350
2018-09-23T14:33:40.896Z,275
2018-09-23T14:34:48.975Z,325
2018-09-23T14:35:57.150Z,265
2018-09-23T14:37:05.172Z,285
2018-09-23T14:38:13.068Z,230
2018-09-23T14:39:21.160Z,275
2018-09-23T14:40:29.224Z,360
2018-09-23T14:41:37.351Z,240
2018-09-23T14:42:45.537Z,265
2018-09-23T14:43:54.031Z,325
2018-09-23T14:45:02.203Z,325
2018-09-23T14:46:10.258Z,305
2018-09-23T14:47:17.647Z,350
2018-09-23T14:48:25.778Z,305
2018-09-23T14:49:33.795Z,295
2018-09-23T14:50:42.170Z,265
2018-09-23T14:51:50.605Z,240
2018-09-23T14:52:58.013Z,290
2018-09-23T14:54:06.077Z,285
2018-09-23T14:55:14.275Z,300
2018-09-23T14:56:22.196Z,275
2018-09-23T14:57:30.274Z,250
2018-09-23T14:58:38.353Z,235
2018-09-23T14:59:46.459Z,215
2018-09-23T15:00:54.490Z,210
2018-09-23T15:02:02.542Z,230
2018-09-23T15:03:10.635Z,280
2018-09-23T15:04:18.705Z,220
2018-09-23T15:05:26.778Z,235
2018-09-23T15:06:34.846Z,255
2018-09-23T15:07:42.880Z,200
2018-09-23T15:08:50.987Z,185
2018-09-23T15:09:59.060Z,205
2018-09-23T15:11:07.132Z,200
2018-09-23T15:12:15.193Z,250
2018-09-23T15:13:23.241Z,175
2018-09-23T15:14:31.330Z,220
2018-09-23T15:15:39.400Z,210
2018-09-23T15:16:47.513Z,115
2018-09-23T15:17:55.540Z,110
2018-09-23T15:19:03.599Z,110
2018-09-23T15:20:11.690Z,105
2018-09-23T15:21:19.764Z,105
2018-09-23T15:22:27.820Z,105
2018-09-23T15:23:35.884Z,100
2018-09-23T15:24:43.962Z,100
2018-09-23T15:25:52.030Z,100
2018-09-23T15:27:00.236Z,100
2018-09-23T15:28:08.415Z,105
2018-09-23T15:29:16.240Z,105
2018-09-23T15:30:24.467Z,105
2018-09-23T15:31:32.489Z,115
2018-09-23T15:32:40.673Z,120
2018-09-23T15:33:48.520Z,120
2018-09-23T15:34:56.590Z,120
2018-09-23T15:36:04.660Z,125
2018-09-23T15:37:13.265Z,135
2018-09-23T15:38:20.811Z,135
2018-09-23T15:39:28.870Z,130
2018-09-23T15:40:36.948Z,135
2018-09-23T15:41:45.005Z,130
2018-09-23T15:42:53.050Z,135
2018-09-23T15:44:01.138Z,130
2018-09-23T15:45:09.204Z,125
2018-09-23T15:46:17.280Z,105
2018-09-23T15:47:25.346Z,110
2018-09-23T15:48:33.401Z,105
2018-09-23T15:49:41.502Z,105
2018-09-23T15:50:49.560Z,105
2018-09-23T15:51:57.631Z,110
2018-09-23T15:53:05.700Z,160
2018-09-23T15:54:13.761Z,150
2018-09-23T15:55:21.856Z,155
2018-09-23T15:56:29.908Z,115
2018-09-23T15:57:37.998Z,85
2018-09-23T15:58:46.038Z,90
2018-09-23T15:59:54.106Z,90
2018-09-23T16:01:02.220Z,90
2018-09-23T16:02:10.230Z,100
2018-09-23T16:03:18.321Z,120
2018-09-23T16:04:26.390Z,150
2018-09-23T16:05:34.446Z,130
2018-09-23T16:06:42.517Z,170